createdAt,value
2023-03-07T00:02:15.573Z,2.54
2023-03-07T00:07:14.649Z,2.56
2023-03-07T00:09:41.312Z,2.61
2023-03-07T00:12:08.681Z,2.63
2023-03-07T00:14:35.175Z,2.63
2023-03-07T00:17:01.631Z,2.67
2023-03-07T00:19:28.174Z,2.67
2023-03-07T00:21:54.512Z,2.68
2023-03-07T00:24:20.844Z,2.69
2023-03-07T00:26:47.290Z,2.70
2023-03-07T00:29:13.657Z,2.74
2023-03-07T00:31:40.115Z,2.72
2023-03-07T00:34:06.725Z,2.76
2023-03-07T00:36:33.087Z,2.79
2023-03-07T00:38:59.463Z,2.79
2023-03-07T00:41:27.312Z,2.81
2023-03-07T00:43:54.027Z,2.81
2023-03-07T00:46:21.248Z,2.81
2023-03-07T00:48:47.993Z,2.84
2023-03-07T00:51:15.775Z,2.86
2023-03-07T00:53:42.343Z,2.89
2023-03-07T00:56:13.719Z,2.92
2023-03-07T00:58:40.127Z,2.91
2023-03-07T01:01:06.957Z,2.93
2023-03-07T01:03:33.854Z,2.91
2023-03-07T01:06:04.486Z,2.93
2023-03-07T01:08:31.122Z,2.93
2023-03-07T01:11:01.446Z,2.92
2023-03-07T01:13:27.914Z,2.91
2023-03-07T01:15:54.335Z,2.93
2023-03-07T01:18:20.859Z,2.92
2023-03-07T01:20:47.206Z,2.92
2023-03-07T01:23:13.565Z,2.91
2023-03-07T01:25:40.954Z,2.90
2023-03-07T01:28:07.649Z,2.92
2023-03-07T01:30:34.045Z,2.89
2023-03-07T01:33:01.322Z,2.87
2023-03-07T01:35:28.063Z,2.87
2023-03-07T01:37:54.721Z,2.85
2023-03-07T01:40:21.915Z,2.83
2023-03-07T01:42:48.345Z,2.79
2023-03-07T01:45:14.695Z,2.79
2023-03-07T01:47:41.661Z,2.77
2023-03-07T01:50:11.716Z,2.76
2023-03-07T01:52:42.482Z,2.75
2023-03-07T01:55:16.415Z,2.74
2023-03-07T01:57:43.096Z,2.71
2023-03-07T02:00:11.787Z,2.72
2023-03-07T02:02:39.194Z,2.71
2023-03-07T02:05:22.016Z,2.69
2023-03-07T02:07:49.628Z,2.66
2023-03-07T02:10:16.709Z,2.66
2023-03-07T02:12:43.107Z,2.62
2023-03-07T02:15:10.411Z,2.56
2023-03-07T02:17:36.788Z,2.55
2023-03-07T02:20:09.715Z,2.53
2023-03-07T02:22:36.068Z,2.53
2023-03-07T02:25:12.724Z,2.51
2023-03-07T02:27:39.097Z,2.47
2023-03-07T02:30:06.169Z,2.45
2023-03-07T02:32:32.940Z,2.41
2023-03-07T02:34:59.349Z,2.38
2023-03-07T02:37:31.302Z,2.40
2023-03-07T02:39:57.706Z,2.41
2023-03-07T02:42:26.790Z,2.39
2023-03-07T02:45:00.825Z,2.35
2023-03-07T02:47:27.207Z,2.30
2023-03-07T02:49:53.693Z,2.31
2023-03-07T02:52:21.784Z,2.31
2023-03-07T02:54:48.341Z,2.32
2023-03-07T02:57:15.096Z,2.29
2023-03-07T02:59:41.524Z,2.31
2023-03-07T03:02:07.917Z,2.31
2023-03-07T03:04:34.311Z,2.29
2023-03-07T03:07:00.700Z,2.26
2023-03-07T03:09:27.331Z,2.26
2023-03-07T03:11:53.692Z,2.18
2023-03-07T03:14:20.548Z,2.16
2023-03-07T03:16:46.985Z,2.16
2023-03-07T03:19:13.328Z,2.12
2023-03-07T03:21:39.780Z,2.04
2023-03-07T03:24:06.858Z,2.02
2023-03-07T03:26:34.101Z,2.03
2023-03-07T03:29:00.533Z,1.98
2023-03-07T03:31:28.743Z,1.94
2023-03-07T03:33:55.144Z,1.98
2023-03-07T03:36:25.717Z,2.00
2023-03-07T03:38:53.129Z,1.96
2023-03-07T03:41:19.490Z,2.01
2023-03-07T03:43:45.894Z,1.97
2023-03-07T03:46:12.845Z,1.99
2023-03-07T03:48:39.383Z,1.98
2023-03-07T03:51:10.925Z,2.02
2023-03-07T03:53:38.599Z,2.00
2023-03-07T03:56:09.672Z,2.02
2023-03-07T03:58:36.213Z,2.05
2023-03-07T04:01:05.772Z,2.01
2023-03-07T04:03:37.965Z,2.04
2023-03-07T04:06:05.664Z,2.02
2023-03-07T04:08:32.461Z,2.05
2023-03-07T04:10:59.360Z,2.05
2023-03-07T04:13:25.803Z,2.04
2023-03-07T04:15:52.518Z,2.03
2023-03-07T04:18:19.245Z,2.04
2023-03-07T04:20:45.616Z,2.07
2023-03-07T04:23:11.948Z,2.09
2023-03-07T04:25:38.459Z,2.07
2023-03-07T04:28:04.910Z,2.10
2023-03-07T04:30:31.291Z,2.11
2023-03-07T04:32:57.856Z,2.10
2023-03-07T04:35:24.214Z,2.11
2023-03-07T04:37:50.658Z,2.10
2023-03-07T04:40:17.263Z,2.11
2023-03-07T04:42:43.641Z,2.10
2023-03-07T04:45:10.515Z,2.12
2023-03-07T04:47:36.890Z,2.09
2023-03-07T04:50:03.393Z,2.13
2023-03-07T04:52:29.756Z,2.17
2023-03-07T04:54:56.309Z,2.14
2023-03-07T04:57:22.682Z,2.15
2023-03-07T04:59:49.018Z,2.18
2023-03-07T05:02:15.579Z,2.18
2023-03-07T05:04:41.957Z,2.21
2023-03-07T05:07:08.912Z,2.20
2023-03-07T05:09:35.590Z,2.21
2023-03-07T05:12:01.952Z,2.27
2023-03-07T05:14:28.459Z,2.22
2023-03-07T05:16:55.042Z,2.24
2023-03-07T05:19:21.459Z,2.23
2023-03-07T05:21:49.135Z,2.22
2023-03-07T05:24:15.561Z,2.27
2023-03-07T05:26:41.925Z,2.31
2023-03-07T05:29:08.286Z,2.32
2023-03-07T05:31:34.834Z,2.35
2023-03-07T05:34:01.241Z,2.33
2023-03-07T05:36:28.106Z,2.36
2023-03-07T05:38:56.557Z,2.38
2023-03-07T05:41:23.219Z,2.39
2023-03-07T05:43:49.567Z,2.41
2023-03-07T05:46:15.999Z,2.44
2023-03-07T05:48:42.401Z,2.42
2023-03-07T05:51:08.753Z,2.44
2023-03-07T05:53:35.382Z,2.44
2023-03-07T05:56:01.729Z,2.44
2023-03-07T05:58:28.052Z,2.45
2023-03-07T06:00:54.567Z,2.45
2023-03-07T06:03:20.987Z,2.44
2023-03-07T06:05:50.554Z,2.44
2023-03-07T06:08:17.132Z,2.44
2023-03-07T06:10:43.484Z,2.42
2023-03-07T06:13:15.416Z,2.38
2023-03-07T06:15:42.054Z,2.31
2023-03-07T06:18:08.422Z,2.31
2023-03-07T06:20:34.814Z,2.36
2023-03-07T06:23:01.216Z,2.37
2023-03-07T06:25:27.539Z,2.37
2023-03-07T06:27:59.578Z,2.36
2023-03-07T06:30:26.023Z,2.38
2023-03-07T06:32:52.411Z,2.33
2023-03-07T06:35:18.771Z,2.21
2023-03-07T06:37:45.305Z,2.12
2023-03-07T06:40:11.989Z,2.04
2023-03-07T06:42:38.351Z,2.00
2023-03-07T06:45:05.438Z,1.98
2023-03-07T06:47:31.804Z,1.97
2023-03-07T06:49:58.185Z,1.99
2023-03-07T06:52:24.834Z,2.02
2023-03-07T06:54:51.226Z,2.01
2023-03-07T06:57:17.787Z,2.05
2023-03-07T06:59:44.407Z,2.04
2023-03-07T07:02:12.722Z,2.08
2023-03-07T07:04:39.153Z,2.13
2023-03-07T07:07:07.304Z,2.19
2023-03-07T07:09:34.277Z,2.18
2023-03-07T07:12:00.602Z,2.20
2023-03-07T07:14:26.999Z,2.20
2023-03-07T07:16:53.370Z,2.21
2023-03-07T07:19:19.792Z,2.25
2023-03-07T07:21:46.438Z,2.26
2023-03-07T07:24:12.906Z,2.31
2023-03-07T07:26:39.251Z,2.31
2023-03-07T07:29:05.622Z,2.36
2023-03-07T07:31:31.988Z,2.40
2023-03-07T07:33:58.614Z,2.45
2023-03-07T07:36:25.272Z,2.48
2023-03-07T07:38:51.658Z,2.54
2023-03-07T07:41:21.006Z,2.58
2023-03-07T07:43:50.116Z,2.59
2023-03-07T07:46:16.519Z,2.63
2023-03-07T07:48:42.941Z,2.68
2023-03-07T07:51:09.366Z,2.68
2023-03-07T07:53:35.793Z,2.72
2023-03-07T07:56:02.165Z,2.67
2023-03-07T07:58:28.575Z,2.65
2023-03-07T08:00:54.980Z,2.60
2023-03-07T08:03:21.734Z,2.63
2023-03-07T08:05:48.690Z,2.58
2023-03-07T08:08:16.316Z,2.55
2023-03-07T08:10:44.143Z,2.54
2023-03-07T08:13:14.051Z,2.48
2023-03-07T08:15:40.859Z,2.49
2023-03-07T08:18:07.234Z,2.51
2023-03-07T08:20:34.022Z,2.50
2023-03-07T08:23:00.348Z,2.54
2023-03-07T08:25:26.699Z,2.48
2023-03-07T08:27:54.949Z,2.50
2023-03-07T08:30:25.539Z,2.57
2023-03-07T08:32:52.598Z,2.61
2023-03-07T08:35:19.264Z,2.62
2023-03-07T08:37:45.804Z,2.57
2023-03-07T08:40:14.295Z,2.61
2023-03-07T08:42:40.842Z,2.60
2023-03-07T08:45:07.685Z,2.57
2023-03-07T08:47:34.118Z,2.55
2023-03-07T08:50:00.536Z,2.56
2023-03-07T08:52:26.893Z,2.55
2023-03-07T08:54:53.267Z,2.57
2023-03-07T08:57:19.664Z,2.55
2023-03-07T08:59:46.009Z,2.53
2023-03-07T09:02:12.446Z,2.44
2023-03-07T09:04:39.071Z,2.38
2023-03-07T09:07:05.475Z,2.38
2023-03-07T09:09:31.805Z,2.29
2023-03-07T09:11:58.213Z,2.28
2023-03-07T09:14:24.585Z,2.23
2023-03-07T09:16:50.938Z,2.23
2023-03-07T09:19:17.325Z,2.19
2023-03-07T09:21:43.723Z,2.27
2023-03-07T09:24:10.092Z,2.24
2023-03-07T09:26:36.688Z,2.23
2023-03-07T09:29:03.071Z,2.27
2023-03-07T09:31:29.430Z,2.31
2023-03-07T09:33:56.683Z,2.35
2023-03-07T09:36:23.242Z,2.47
2023-03-07T09:38:49.658Z,2.65
2023-03-07T09:41:28.260Z,2.60
2023-03-07T09:44:00.398Z,2.69
2023-03-07T09:47:10.435Z,2.79
2023-03-07T09:49:49.901Z,2.94
2023-03-07T09:52:24.648Z,2.85
2023-03-07T09:55:11.608Z,2.84
2023-03-07T09:57:50.088Z,2.77
2023-03-07T10:00:26.973Z,2.75
2023-03-07T10:02:54.930Z,2.82
2023-03-07T10:05:31.288Z,2.92
2023-03-07T10:07:57.923Z,2.96
2023-03-07T10:10:26.030Z,2.94
2023-03-07T10:13:17.878Z,2.88
2023-03-07T10:15:47.653Z,2.76
2023-03-07T10:18:42.597Z,2.78
2023-03-07T10:21:17.883Z,2.63
2023-03-07T10:24:12.594Z,2.56
2023-03-07T10:26:44.005Z,2.52
2023-03-07T10:29:15.576Z,2.51
2023-03-07T10:31:44.876Z,2.43
2023-03-07T10:34:26.435Z,2.35
2023-03-07T10:37:21.052Z,2.22
2023-03-07T10:39:54.563Z,2.13
2023-03-07T10:42:25.261Z,1.97
2023-03-07T10:44:51.769Z,1.99
2023-03-07T10:47:23.366Z,1.86
2023-03-07T10:49:51.350Z,1.86
2023-03-07T10:52:28.278Z,1.93
2023-03-07T10:54:55.437Z,1.94
2023-03-07T10:57:26.795Z,1.84
2023-03-07T10:59:53.208Z,1.94
2023-03-07T11:02:28.721Z,1.86
2023-03-07T11:04:55.182Z,1.82
2023-03-07T11:07:31.899Z,1.74
2023-03-07T11:09:59.086Z,1.69
2023-03-07T11:12:26.743Z,1.69
2023-03-07T11:15:00.207Z,1.66
2023-03-07T11:17:46.356Z,1.63
2023-03-07T11:20:24.282Z,1.56
2023-03-07T11:22:52.133Z,1.62
2023-03-07T11:25:23.131Z,1.66
2023-03-07T11:27:52.597Z,1.62
2023-03-07T11:30:19.155Z,1.62
2023-03-07T11:33:00.377Z,1.66
2023-03-07T11:35:50.256Z,1.71
2023-03-07T11:38:31.909Z,1.70
2023-03-07T11:41:04.001Z,1.77
2023-03-07T11:43:52.147Z,1.75
2023-03-07T11:46:30.790Z,1.81
2023-03-07T11:49:06.008Z,1.82
2023-03-07T11:51:44.781Z,1.92
2023-03-07T11:54:11.260Z,1.87
2023-03-07T11:56:40.727Z,1.94
2023-03-07T11:59:17.444Z,1.84
2023-03-07T12:01:54.410Z,1.91
2023-03-07T12:04:39.885Z,1.92
2023-03-07T12:07:21.499Z,1.97
2023-03-07T12:10:31.611Z,2.00
2023-03-07T12:13:39.423Z,1.96
2023-03-07T12:16:32.457Z,1.90
2023-03-07T12:19:32.834Z,1.91
2023-03-07T12:22:06.198Z,1.84
2023-03-07T12:24:38.297Z,1.90
2023-03-07T12:27:19.770Z,1.96
2023-03-07T12:29:51.812Z,2.04
2023-03-07T12:32:21.214Z,2.08
2023-03-07T12:34:56.259Z,2.10
2023-03-07T12:37:25.195Z,2.12
2023-03-07T12:40:02.036Z,2.19
2023-03-07T12:42:31.916Z,2.17
2023-03-07T12:45:07.401Z,2.24
2023-03-07T12:47:55.865Z,2.26
2023-03-07T12:50:37.699Z,2.27
2023-03-07T12:53:10.429Z,2.21
2023-03-07T12:55:44.948Z,2.26
2023-03-07T12:58:34.369Z,2.24
2023-03-07T13:01:07.258Z,2.26
2023-03-07T13:04:12.759Z,2.30
2023-03-07T13:06:41.561Z,2.34
2023-03-07T13:09:07.977Z,2.34
2023-03-07T13:11:34.737Z,2.38
2023-03-07T13:14:02.375Z,2.39
2023-03-07T13:16:47.748Z,2.33
2023-03-07T13:19:39.300Z,2.43
2023-03-07T13:22:14.907Z,2.53
2023-03-07T13:24:41.965Z,2.54
2023-03-07T13:27:18.361Z,2.57
2023-03-07T13:30:03.052Z,2.47
2023-03-07T13:32:48.472Z,2.46
2023-03-07T13:35:37.613Z,2.53
2023-03-07T13:38:22.821Z,2.45
2023-03-07T13:41:11.679Z,2.48
2023-03-07T13:43:44.387Z,2.46
2023-03-07T13:46:29.656Z,2.42
2023-03-07T13:48:56.070Z,2.48
2023-03-07T13:51:22.486Z,2.46
2023-03-07T13:53:57.056Z,2.55
2023-03-07T13:56:28.530Z,2.61
2023-03-07T13:58:56.799Z,2.69
2023-03-07T14:01:42.865Z,2.66
2023-03-07T14:04:39.393Z,2.68
2023-03-07T14:07:35.092Z,2.75
2023-03-07T14:10:23.085Z,2.72
2023-03-07T14:13:14.191Z,2.72
2023-03-07T14:16:17.894Z,2.77
2023-03-07T14:19:06.038Z,2.66
2023-03-07T14:21:41.486Z,2.71
2023-03-07T14:24:54.800Z,2.69
2023-03-07T14:27:21.148Z,2.59
2023-03-07T14:29:52.255Z,2.63
2023-03-07T14:32:30.211Z,2.61
2023-03-07T14:34:57.218Z,2.60
2023-03-07T14:37:30.301Z,2.56
2023-03-07T14:39:59.954Z,2.49
2023-03-07T14:42:48.663Z,2.45
2023-03-07T14:45:39.698Z,2.33
2023-03-07T14:48:29.247Z,2.14
2023-03-07T14:50:56.065Z,2.07
2023-03-07T14:53:24.791Z,1.98
2023-03-07T14:55:53.629Z,1.92
2023-03-07T14:58:23.926Z,1.86
2023-03-07T15:01:00.713Z,1.87
2023-03-07T15:03:27.405Z,1.85
2023-03-07T15:05:55.685Z,1.86
2023-03-07T15:08:30.580Z,1.85
2023-03-07T15:11:02.241Z,1.89
2023-03-07T15:13:32.329Z,1.83
2023-03-07T15:16:04.665Z,1.84
2023-03-07T15:18:33.822Z,1.80
2023-03-07T15:21:00.189Z,1.79
2023-03-07T15:23:30.004Z,1.77
2023-03-07T15:26:06.994Z,1.78
2023-03-07T15:28:38.003Z,1.81
2023-03-07T15:31:04.881Z,1.77
2023-03-07T15:33:31.963Z,1.83
2023-03-07T15:36:13.759Z,1.77
2023-03-07T15:38:41.888Z,1.78
2023-03-07T15:41:27.574Z,1.73
2023-03-07T15:44:07.384Z,1.74
2023-03-07T15:46:33.789Z,1.75
2023-03-07T15:49:00.158Z,1.76
2023-03-07T15:51:27.391Z,1.68
2023-03-07T15:54:04.390Z,1.64
2023-03-07T15:56:34.598Z,1.67
2023-03-07T15:59:02.723Z,1.69
2023-03-07T16:01:29.096Z,1.71
2023-03-07T16:04:05.559Z,1.58
2023-03-07T16:06:37.990Z,1.63
2023-03-07T16:09:05.475Z,1.63
2023-03-07T16:11:32.319Z,1.56
2023-03-07T16:13:58.689Z,1.55
2023-03-07T16:16:29.225Z,1.53
2023-03-07T16:18:57.802Z,1.48
2023-03-07T16:21:24.387Z,1.41
2023-03-07T16:23:50.897Z,1.45
2023-03-07T16:26:22.025Z,1.45
2023-03-07T16:28:49.275Z,1.40
2023-03-07T16:31:16.520Z,1.44
2023-03-07T16:33:43.775Z,1.42
2023-03-07T16:36:10.681Z,1.39
2023-03-07T16:38:37.098Z,1.33
2023-03-07T16:41:06.195Z,1.33
2023-03-07T16:43:38.726Z,1.35
2023-03-07T16:46:07.074Z,1.33
2023-03-07T16:48:33.660Z,1.35
2023-03-07T16:51:00.495Z,1.38
2023-03-07T16:53:26.871Z,1.42
2023-03-07T16:55:54.405Z,1.43
2023-03-07T16:58:23.045Z,1.44
2023-03-07T17:00:49.451Z,1.41
2023-03-07T17:03:16.055Z,1.41
2023-03-07T17:05:42.437Z,1.41
2023-03-07T17:08:08.869Z,1.39
2023-03-07T17:10:36.342Z,1.37
2023-03-07T17:13:02.734Z,1.35
2023-03-07T17:15:33.075Z,1.37
2023-03-07T17:18:00.383Z,1.38
2023-03-07T17:20:26.981Z,1.40
2023-03-07T17:22:53.844Z,1.40
2023-03-07T17:25:21.037Z,1.33
2023-03-07T17:27:59.651Z,1.35
2023-03-07T17:30:27.854Z,1.37
2023-03-07T17:32:54.288Z,1.34
2023-03-07T17:35:20.741Z,1.36
2023-03-07T17:37:49.778Z,1.39
2023-03-07T17:40:16.171Z,1.42
2023-03-07T17:42:42.849Z,1.42
2023-03-07T17:45:10.940Z,1.40
2023-03-07T17:47:37.300Z,1.36
2023-03-07T17:50:05.376Z,1.37
2023-03-07T17:52:32.567Z,1.34
2023-03-07T17:54:59.264Z,1.35
2023-03-07T17:57:26.716Z,1.40
2023-03-07T17:59:54.161Z,1.37
2023-03-07T18:02:20.659Z,1.37
2023-03-07T18:04:47.095Z,1.37
2023-03-07T18:07:13.640Z,1.41
2023-03-07T18:09:40.012Z,1.40
2023-03-07T18:12:06.828Z,1.38
2023-03-07T18:14:33.369Z,1.39
2023-03-07T18:16:59.822Z,1.36
2023-03-07T18:19:27.394Z,1.34
2023-03-07T18:21:54.430Z,1.30
2023-03-07T18:24:23.002Z,1.26
2023-03-07T18:26:49.732Z,1.24
2023-03-07T18:29:16.272Z,1.15
2023-03-07T18:31:42.913Z,1.10
2023-03-07T18:34:09.282Z,1.07
2023-03-07T18:36:35.692Z,1.03
2023-03-07T18:39:02.143Z,1.06
2023-03-07T18:41:28.577Z,1.03
2023-03-07T18:43:56.072Z,0.99
2023-03-07T18:46:23.697Z,1.05
2023-03-07T18:48:50.324Z,1.04
2023-03-07T18:51:18.378Z,1.03
2023-03-07T18:53:44.785Z,1.04
2023-03-07T18:56:15.129Z,1.05
2023-03-07T18:58:41.745Z,1.04
2023-03-07T19:01:12.263Z,1.04
2023-03-07T19:03:38.780Z,1.04
2023-03-07T19:06:05.456Z,1.09
2023-03-07T19:08:31.867Z,1.05
2023-03-07T19:11:01.712Z,1.03
2023-03-07T19:13:28.312Z,1.06
2023-03-07T19:16:08.416Z,1.09
2023-03-07T19:18:35.168Z,1.13
2023-03-07T19:21:08.525Z,1.10
2023-03-07T19:23:34.967Z,1.11
2023-03-07T19:26:05.325Z,1.08
2023-03-07T19:28:31.778Z,1.08
2023-03-07T19:30:58.273Z,1.10
2023-03-07T19:33:25.029Z,1.11
2023-03-07T19:36:21.558Z,1.10
2023-03-07T19:38:48.926Z,1.10
2023-03-07T19:41:16.650Z,1.13
2023-03-07T19:43:43.095Z,1.14
2023-03-07T19:46:11.016Z,1.13
2023-03-07T19:48:39.808Z,1.16
2023-03-07T19:51:19.809Z,1.15
2023-03-07T19:53:46.778Z,1.17
2023-03-07T19:56:24.503Z,1.17
2023-03-07T19:58:50.984Z,1.21
2023-03-07T20:01:18.852Z,1.20
2023-03-07T20:03:45.383Z,1.22
2023-03-07T20:06:18.731Z,1.25
2023-03-07T20:08:49.764Z,1.28
2023-03-07T20:11:20.997Z,1.21
2023-03-07T20:13:48.120Z,1.17
2023-03-07T20:16:15.945Z,1.25
2023-03-07T20:18:42.409Z,1.23
2023-03-07T20:21:10.548Z,1.20
2023-03-07T20:23:37.089Z,1.17
2023-03-07T20:26:11.130Z,1.18
2023-03-07T20:28:37.752Z,1.15
2023-03-07T20:31:05.735Z,1.19
2023-03-07T20:33:32.094Z,1.21
2023-03-07T20:36:09.528Z,1.19
2023-03-07T20:38:36.927Z,1.22
2023-03-07T20:41:05.126Z,1.22
2023-03-07T20:43:32.193Z,1.24
2023-03-07T20:46:05.711Z,1.20
2023-03-07T20:48:32.225Z,1.18
2023-03-07T20:51:21.275Z,1.18
2023-03-07T20:53:48.448Z,1.14
2023-03-07T20:56:14.987Z,1.12
2023-03-07T20:58:41.458Z,1.11
2023-03-07T21:01:07.824Z,1.11
2023-03-07T21:03:34.255Z,1.09
2023-03-07T21:06:01.328Z,1.06
2023-03-07T21:08:28.868Z,1.01
2023-03-07T21:11:02.611Z,1.04
2023-03-07T21:13:29.110Z,1.02
2023-03-07T21:15:56.549Z,1.00
2023-03-07T21:18:23.298Z,0.98
2023-03-07T21:20:49.668Z,1.01
2023-03-07T21:23:16.152Z,1.00
2023-03-07T21:25:42.673Z,0.99
2023-03-07T21:28:09.005Z,0.99
2023-03-07T21:30:35.416Z,0.98
2023-03-07T21:33:01.995Z,0.99
2023-03-07T21:35:28.387Z,0.92
2023-03-07T21:37:54.815Z,0.92
2023-03-07T21:40:21.452Z,0.92
2023-03-07T21:42:47.935Z,0.92
2023-03-07T21:45:14.513Z,0.88
2023-03-07T21:47:41.415Z,0.84
2023-03-07T21:50:08.296Z,0.80
2023-03-07T21:52:34.628Z,0.77
2023-03-07T21:55:01.165Z,0.75
2023-03-07T21:57:28.836Z,0.75
2023-03-07T21:59:55.194Z,0.71
2023-03-07T22:02:22.985Z,0.69
2023-03-07T22:04:49.884Z,0.72
2023-03-07T22:07:16.313Z,0.68
2023-03-07T22:09:42.678Z,0.65
2023-03-07T22:12:09.070Z,0.67
2023-03-07T22:14:35.417Z,0.69
2023-03-07T22:17:01.945Z,0.65
2023-03-07T22:19:28.292Z,0.59
2023-03-07T22:21:54.623Z,0.57
2023-03-07T22:24:21.015Z,0.59
2023-03-07T22:26:47.348Z,0.59
2023-03-07T22:29:13.763Z,0.55
2023-03-07T22:31:40.186Z,0.54
2023-03-07T22:34:06.629Z,0.52
2023-03-07T22:36:33.002Z,0.49
2023-03-07T22:38:59.688Z,0.47
2023-03-07T22:41:26.270Z,0.45
2023-03-07T22:43:52.715Z,0.47
2023-03-07T22:46:19.388Z,0.45
2023-03-07T22:48:45.843Z,0.47
2023-03-07T22:51:14.158Z,0.44
2023-03-07T22:53:40.951Z,0.48
2023-03-07T22:56:29.420Z,0.50
2023-03-07T22:58:56.141Z,0.45
2023-03-07T23:01:24.337Z,0.45
2023-03-07T23:03:51.136Z,0.42
2023-03-07T23:06:17.634Z,0.40
2023-03-07T23:08:45.340Z,0.39
2023-03-07T23:11:11.834Z,0.33
2023-03-07T23:13:38.408Z,0.34
2023-03-07T23:16:08.431Z,0.34
2023-03-07T23:18:34.961Z,0.33
2023-03-07T23:21:02.695Z,0.34
2023-03-07T23:23:29.041Z,0.34
2023-03-07T23:25:55.394Z,0.32
2023-03-07T23:28:21.984Z,0.27
2023-03-07T23:30:48.802Z,0.30
2023-03-07T23:33:15.201Z,0.27
2023-03-07T23:35:41.782Z,0.28
2023-03-07T23:38:08.200Z,0.28
2023-03-07T23:40:37.238Z,0.27
2023-03-07T23:43:04.269Z,0.24
2023-03-07T23:45:30.888Z,0.19
2023-03-07T23:47:57.293Z,0.17
2023-03-07T23:50:24.001Z,0.18
2023-03-07T23:52:50.337Z,0.18
2023-03-07T23:55:16.769Z,0.20
2023-03-07T23:57:43.219Z,0.22
